Time;durP1;ratioP1;P1;durP2;ratioP2;P2;SDS_P1;SDS_P2;PMS_P1;PMS_P2;Temp;Humidity;BMP_temperature;BMP_pressure;BME280_temperature;BME280_humidity;BME280_pressure;Samples;Min_cycle;Max_cycle;Signal;HPM_P1;HPM_P2
2022/12/20 00:01:22;;;;;;;10.33;5.60;;;;;;;0.95;100.00;96329.16;5090992;28;20192;-56
2022/12/20 00:03:52;;;;;;;11.27;6.03;;;;;;;0.89;100.00;96324.25;5091071;28;20217;-55
2022/12/20 00:06:18;;;;;;;8.90;5.70;;;;;;;0.86;100.00;96346.88;5091004;28;20262;-55
2022/12/20 00:08:44;;;;;;;11.10;5.57;;;;;;;0.92;100.00;96320.88;5090705;28;20204;-54
2022/12/20 00:11:10;;;;;;;11.70;6.00;;;;;;;0.87;100.00;96342.69;5090797;28;20218;-57
2022/12/20 00:13:35;;;;;;;12.30;5.60;;;;;;;0.89;100.00;96326.78;5090959;28;20222;-54
2022/12/20 00:16:12;;;;;;;10.60;6.23;;;;;;;1.02;100.00;96365.72;5090552;28;20219;-56
2022/12/20 00:18:39;;;;;;;12.90;5.83;;;;;;;1.01;100.00;96358.25;5090881;28;20681;-54
2022/12/20 00:21:07;;;;;;;11.60;6.40;;;;;;;1.08;100.00;96383.13;5090829;28;20211;-54
2022/12/20 00:23:34;;;;;;;7.67;4.93;;;;;;;1.08;100.00;96388.16;5090522;28;20665;-53
2022/12/20 00:26:03;;;;;;;9.87;5.30;;;;;;;1.08;100.00;96374.78;5090778;28;20216;-56
2022/12/20 00:28:29;;;;;;;13.63;6.43;;;;;;;1.06;100.00;96379.00;5072592;28;20192;-53
2022/12/20 00:30:55;;;;;;;8.63;5.30;;;;;;;0.90;100.00;96386.00;5090633;28;20208;-55
2022/12/20 00:33:21;;;;;;;8.23;5.23;;;;;;;0.92;100.00;96360.94;5090785;28;20239;-54
2022/12/20 00:35:46;;;;;;;9.87;5.30;;;;;;;1.07;100.00;96378.97;5090409;28;20252;-55
2022/12/20 00:38:11;;;;;;;9.03;5.43;;;;;;;0.93;100.00;96342.56;5090730;28;20212;-56
2022/12/20 00:40:38;;;;;;;9.47;4.70;;;;;;;0.97;100.00;96367.50;5090507;28;20204;-54
2022/12/20 00:43:04;;;;;;;10.10;5.43;;;;;;;1.02;100.00;96378.25;5090285;28;20282;-53
2022/12/20 00:45:29;;;;;;;7.80;4.87;;;;;;;0.79;100.00;96363.69;5090416;28;20235;-53
2022/12/20 00:47:54;;;;;;;11.90;5.50;;;;;;;0.86;100.00;96351.88;5091832;28;20287;-53
2022/12/20 00:50:20;;;;;;;9.10;5.40;;;;;;;0.83;100.00;96325.22;5094386;28;20214;-53
2022/12/20 00:52:45;;;;;;;10.50;5.30;;;;;;;0.84;100.00;96373.59;5093901;28;20629;-55
2022/12/20 00:55:11;;;;;;;10.17;5.67;;;;;;;0.71;100.00;96352.16;5094048;28;20204;-54
2022/12/20 00:57:36;;;;;;;9.57;5.40;;;;;;;0.78;100.00;96369.56;5093849;28;20647;-54
2022/12/20 01:00:02;;;;;;;11.50;5.30;;;;;;;0.70;100.00;96350.53;5093688;28;20273;-56
2022/12/20 01:02:28;;;;;;;11.57;5.63;;;;;;;0.76;100.00;96371.25;5094051;28;20645;-53
2022/12/20 01:04:53;;;;;;;8.93;4.93;;;;;;;0.69;100.00;96368.88;5093621;28;20246;-54
2022/12/20 01:07:19;;;;;;;7.60;4.50;;;;;;;0.59;100.00;96364.91;5093943;28;20189;-55
2022/12/20 01:09:44;;;;;;;10.67;5.13;;;;;;;0.79;100.00;96375.34;5093616;28;20713;-56
2022/12/20 01:12:10;;;;;;;10.33;5.63;;;;;;;0.66;100.00;96373.97;5093363;28;20271;-53
2022/12/20 01:14:35;;;;;;;8.97;4.80;;;;;;;0.66;100.00;96382.31;5093689;28;20215;-55
2022/12/20 01:17:01;;;;;;;10.13;5.20;;;;;;;0.67;100.00;96360.56;5093356;28;20576;-56
2022/12/20 01:19:26;;;;;;;9.23;4.90;;;;;;;0.47;100.00;96308.44;5075310;28;20679;-53
2022/12/20 01:21:52;;;;;;;10.73;5.47;;;;;;;0.63;100.00;96334.81;5093516;28;20287;-54
2022/12/20 01:24:19;;;;;;;11.23;5.53;;;;;;;0.57;100.00;96329.09;5093560;28;20630;-55
2022/12/20 01:26:45;;;;;;;12.77;5.27;;;;;;;0.44;100.00;96326.00;5093472;28;20196;-53
2022/12/20 01:29:11;;;;;;;8.97;4.90;;;;;;;0.50;100.00;96330.06;5093163;28;20697;-54
2022/12/20 01:31:36;;;;;;;9.77;5.20;;;;;;;0.61;100.00;96310.66;5093333;28;20672;-53
2022/12/20 01:34:02;;;;;;;11.00;5.30;;;;;;;0.46;100.00;96333.47;5093435;28;20202;-55
2022/12/20 01:36:33;;;;;;;8.23;5.00;;;;;;;0.50;100.00;96318.41;5093171;28;20286;-54
2022/12/20 01:39:12;;;;;;;6.70;4.50;;;;;;;0.42;100.00;96316.88;5093316;28;20631;-53
2022/12/20 01:41:39;;;;;;;13.97;5.30;;;;;;;0.15;100.00;96300.72;5093181;28;20568;-54
2022/12/20 01:44:17;;;;;;;9.00;4.43;;;;;;;0.28;100.00;96292.16;5093425;28;20188;-56
2022/12/20 01:46:43;;;;;;;8.80;5.10;;;;;;;0.42;100.00;96297.72;5093110;28;20668;-55
2022/12/20 01:49:16;;;;;;;8.03;4.73;;;;;;;0.44;100.00;96292.66;5092962;28;20713;-53
2022/12/20 01:51:54;;;;;;;10.73;5.00;;;;;;;0.31;100.00;96271.22;5093208;28;20188;-54
2022/12/20 01:54:25;;;;;;;10.33;4.97;;;;;;;0.31;100.00;96276.22;5093281;28;20227;-54
2022/12/20 01:56:57;;;;;;;10.43;5.03;;;;;;;0.35;100.00;96291.16;5093077;28;20188;-54
2022/12/20 01:59:24;;;;;;;8.97;4.77;;;;;;;0.25;100.00;96271.34;5092882;28;20306;-56
2022/12/20 02:01:50;;;;;;;10.87;5.37;;;;;;;0.19;100.00;96262.28;5092772;28;20207;-55
2022/12/20 02:04:15;;;;;;;9.53;5.30;;;;;;;0.09;100.00;96268.31;5092937;28;20203;-55
2022/12/20 02:06:41;;;;;;;8.47;4.80;;;;;;;0.10;100.00;96271.66;5092787;28;20191;-55
2022/12/20 02:09:07;;;;;;;10.63;5.03;;;;;;;0.08;100.00;96254.19;5092870;28;20246;-52
2022/12/20 02:12:00;;;;;;;9.80;4.77;;;;;;;0.20;100.00;96276.47;5074628;28;20195;-53
2022/12/20 02:14:31;;;;;;;9.93;5.40;;;;;;;0.25;100.00;96271.34;5092527;28;20227;-54
2022/12/20 02:17:09;;;;;;;10.20;5.33;;;;;;;0.22;100.00;96306.44;5092677;28;20275;-56
2022/12/20 02:20:17;;;;;;;10.17;4.70;;;;;;;0.20;100.00;96313.13;5092861;28;20216;-55
2022/12/20 02:23:03;;;;;;;9.07;4.20;;;;;;;0.13;100.00;96296.56;5092660;28;20210;-54
2022/12/20 02:25:43;;;;;;;9.93;5.00;;;;;;;0.20;100.00;96303.97;5092576;28;20764;-54
2022/12/20 02:28:47;;;;;;;8.43;4.80;;;;;;;0.11;100.00;96300.78;5092470;28;21096;-55
2022/12/20 02:31:17;;;;;;;6.17;4.30;;;;;;;0.09;100.00;96315.81;5087276;28;20227;-55
2022/12/20 02:33:47;;;;;;;8.23;4.83;;;;;;;0.10;100.00;96291.66;5092348;28;20200;-57
2022/12/20 02:36:17;;;;;;;7.13;5.20;;;;;;;0.14;100.00;96304.06;5092467;28;20568;-54
2022/12/20 02:38:43;;;;;;;12.47;4.83;;;;;;;0.16;100.00;96316.53;5092067;28;20212;-56
2022/12/20 02:41:16;;;;;;;8.97;4.37;;;;;;;0.21;100.00;96307.25;5092108;28;20223;-55
2022/12/20 02:46:37;;;;;;;9.67;5.00;;;;;;;0.14;100.00;96298.25;5092565;28;20298;-56
2022/12/20 02:49:10;;;;;;;7.80;4.63;;;;;;;0.10;100.00;96301.66;5092421;28;20184;-53
2022/12/20 02:51:36;;;;;;;11.30;5.57;;;;;;;0.15;100.00;96290.69;5092185;28;20172;-55
2022/12/20 02:54:02;;;;;;;9.97;5.30;;;;;;;0.27;100.00;96319.66;5083291;22;20188;-52
2022/12/20 02:56:31;;;;;;;14.80;5.80;;;;;;;0.28;100.00;96313.81;5090650;28;20215;-56
2022/12/20 02:59:15;;;;;;;8.07;5.13;;;;;;;0.14;100.00;96281.56;5091698;28;20203;-55
2022/12/20 03:01:47;;;;;;;9.47;5.47;;;;;;;0.18;100.00;96282.34;5091702;28;20207;-55
2022/12/20 03:04:14;;;;;;;10.20;5.77;;;;;;;0.21;100.00;96290.59;5091786;28;20525;-56
2022/12/20 03:07:01;;;;;;;11.80;5.90;;;;;;;0.00;100.00;96266.81;5091681;28;20285;-56
2022/12/20 03:09:29;;;;;;;9.73;5.17;;;;;;;0.14;100.00;96268.25;5091711;28;20214;-53
2022/12/20 03:11:55;;;;;;;11.87;6.13;;;;;;;0.09;100.00;96260.00;5091234;28;20187;-55
2022/12/20 03:14:20;;;;;;;11.77;5.73;;;;;;;-0.06;100.00;96249.41;5091646;28;20216;-53
2022/12/20 03:16:46;;;;;;;12.00;6.20;;;;;;;-0.09;100.00;96222.00;5091585;28;20203;-55
2022/12/20 03:19:11;;;;;;;13.43;6.73;;;;;;;-0.07;100.00;96230.28;5091189;28;20211;-55
2022/12/20 03:21:37;;;;;;;11.23;6.07;;;;;;;-0.06;100.00;96206.94;5091696;28;20203;-55
2022/12/20 03:24:02;;;;;;;9.97;5.60;;;;;;;-0.16;100.00;96202.13;5091619;28;20676;-53
2022/12/20 03:26:28;;;;;;;12.90;6.67;;;;;;;-0.17;100.00;96195.50;5091609;28;20259;-53
2022/12/20 03:28:53;;;;;;;12.87;6.23;;;;;;;-0.13;100.00;96207.91;5091426;28;20187;-55
2022/12/20 03:31:19;;;;;;;11.33;6.10;;;;;;;-0.19;100.00;96199.69;5091618;28;20191;-55
2022/12/20 03:33:44;;;;;;;9.53;6.47;;;;;;;-0.19;100.00;96183.03;5091453;28;20271;-56
2022/12/20 03:36:10;;;;;;;13.17;7.07;;;;;;;-0.33;100.00;96184.13;5091496;28;20249;-54
2022/12/20 03:38:42;;;;;;;11.97;6.60;;;;;;;-0.29;100.00;96184.06;5091227;28;20254;-55
2022/12/20 03:41:08;;;;;;;12.20;6.30;;;;;;;-0.38;100.00;96178.38;5091238;28;20239;-57
2022/12/20 03:43:33;;;;;;;12.33;6.00;;;;;;;-0.52;100.00;96165.31;5091212;28;20187;-54
2022/12/20 03:45:59;;;;;;;12.60;6.70;;;;;;;-0.59;100.00;96149.66;5091497;28;20711;-55
2022/12/20 03:48:24;;;;;;;13.03;6.50;;;;;;;-0.65;100.00;96143.94;5091154;28;20188;-54
2022/12/20 03:50:49;;;;;;;10.97;6.20;;;;;;;-0.67;100.00;96140.63;5091686;28;20241;-53
2022/12/20 03:53:15;;;;;;;12.00;6.60;;;;;;;-0.71;100.00;96139.03;5072906;28;20235;-53
2022/12/20 03:55:41;;;;;;;14.43;7.37;;;;;;;-0.61;100.00;96151.34;5091362;28;20208;-55
2022/12/20 03:58:06;;;;;;;13.10;6.53;;;;;;;-0.59;100.00;96134.66;5091021;28;20240;-54
2022/12/20 04:00:31;;;;;;;11.37;6.20;;;;;;;-0.62;100.00;96132.22;5091094;28;20220;-55
2022/12/20 04:02:57;;;;;;;13.40;7.27;;;;;;;-0.57;100.00;96152.94;5090938;28;20192;-56
2022/12/20 04:05:22;;;;;;;11.47;7.47;;;;;;;-0.57;100.00;96157.09;5090879;28;20215;-55
2022/12/20 04:07:48;;;;;;;12.07;6.07;;;;;;;-0.54;100.00;96167.84;5072820;28;20191;-52
2022/12/20 04:10:13;;;;;;;14.27;7.33;;;;;;;-0.61;100.00;96151.34;5091273;28;20292;-53
2022/12/20 04:12:38;;;;;;;13.33;7.87;;;;;;;-0.70;100.00;96149.00;5091039;28;20191;-53
2022/12/20 04:15:04;;;;;;;14.10;6.47;;;;;;;-0.76;100.00;96115.81;5090640;28;20287;-56
2022/12/20 04:17:30;;;;;;;13.27;6.67;;;;;;;-0.59;100.00;96143.81;5090731;28;20195;-55
2022/12/20 04:19:55;;;;;;;14.97;7.13;;;;;;;-0.48;100.00;96176.91;5090691;28;20273;-53
2022/12/20 04:22:21;;;;;;;10.13;6.33;;;;;;;-0.51;100.00;96152.84;5091335;28;20248;-55
2022/12/20 04:24:46;;;;;;;11.43;6.37;;;;;;;-0.48;100.00;96164.41;5094438;28;20214;-54
2022/12/20 04:27:12;;;;;;;10.60;6.57;;;;;;;-0.49;100.00;96168.63;5094196;28;20287;-53
2022/12/20 04:29:37;;;;;;;11.07;6.60;;;;;;;-0.45;100.00;96194.34;5094370;28;20595;-56
2022/12/20 04:32:02;;;;;;;16.40;7.30;;;;;;;-0.55;100.00;96158.72;5094279;28;20184;-54
2022/12/20 04:34:28;;;;;;;11.80;6.47;;;;;;;-0.43;100.00;96197.63;5094335;28;20219;-53
2022/12/20 04:36:53;;;;;;;13.10;6.97;;;;;;;-0.43;100.00;96186.00;5094128;28;20190;-52
2022/12/20 04:39:19;;;;;;;16.53;7.13;;;;;;;-0.57;100.00;96152.13;5094100;28;20249;-54
2022/12/20 04:41:44;;;;;;;13.23;7.17;;;;;;;-0.43;100.00;96168.50;5101650;22;20231;-57
2022/12/20 04:44:09;;;;;;;12.27;6.70;;;;;;;-0.45;100.00;96164.38;5094000;28;20207;-55
2022/12/20 04:46:35;;;;;;;12.27;6.83;;;;;;;-0.47;100.00;96194.38;5093985;28;20674;-54
2022/12/20 04:49:00;;;;;;;14.70;7.77;;;;;;;-0.55;100.00;96178.72;5093911;28;20191;-53
2022/12/20 04:51:27;;;;;;;18.97;7.47;;;;;;;-0.52;100.00;96161.16;5093999;28;20566;-57
2022/12/20 04:53:53;;;;;;;14.43;7.33;;;;;;;-0.68;100.00;96144.81;5093972;28;20614;-55
2022/12/20 04:56:22;;;;;;;13.23;6.73;;;;;;;-0.71;100.00;96127.41;5094183;28;20222;-54
2022/12/20 04:58:50;;;;;;;11.60;7.10;;;;;;;-0.65;100.00;96141.44;5093722;28;20643;-57
2022/12/20 05:01:16;;;;;;;12.03;7.27;;;;;;;-0.61;100.00;96187.97;5094018;28;20191;-55
2022/12/20 05:03:43;;;;;;;14.70;7.70;;;;;;;-0.87;100.00;96124.31;5093801;28;20195;-55
2022/12/20 05:06:09;;;;;;;11.70;7.20;;;;;;;-0.75;100.00;96160.75;5093739;28;20214;-54
2022/12/20 05:08:35;;;;;;;13.53;7.00;;;;;;;-0.66;100.00;96142.28;5093636;28;20202;-57
2022/12/20 05:11:01;;;;;;;12.80;6.83;;;;;;;-0.74;100.00;96134.09;5093486;28;20280;-54
2022/12/20 05:13:26;;;;;;;11.60;6.70;;;;;;;-0.69;100.00;96134.84;5093411;28;20192;-54
2022/12/20 05:15:54;;;;;;;11.00;6.87;;;;;;;-0.59;100.00;96182.09;5074995;28;20223;-56
2022/12/20 05:18:20;;;;;;;12.53;7.27;;;;;;;-0.63;100.00;96192.16;5093336;28;20688;-56
2022/12/20 05:20:46;;;;;;;20.80;7.93;;;;;;;-0.71;100.00;96164.84;5093547;28;20206;-56
2022/12/20 05:28:40;;;;;;;13.13;7.40;;;;;;;-0.83;100.00;96146.75;5093245;28;20190;-56
2022/12/20 05:31:05;;;;;;;13.80;7.07;;;;;;;-0.74;100.00;96144.91;5093109;28;20207;-54
2022/12/20 05:33:31;;;;;;;10.60;6.37;;;;;;;-1.03;100.00;96127.13;5092778;28;20672;-55
2022/12/20 05:35:56;;;;;;;16.33;7.90;;;;;;;-0.89;100.00;96142.69;5093597;28;20651;-57
2022/12/20 05:38:23;;;;;;;14.50;7.60;;;;;;;-0.91;100.00;96141.88;5092978;28;20265;-56
2022/12/20 05:40:50;;;;;;;14.30;7.67;;;;;;;-0.71;100.00;96156.53;5093482;28;20200;-57
2022/12/20 05:43:16;;;;;;;14.83;7.70;;;;;;;-0.78;100.00;96173.25;5093036;28;20211;-54
2022/12/20 05:45:50;;;;;;;13.87;7.07;;;;;;;-0.43;100.00;96122.72;5093277;28;20236;-56
2022/12/20 05:48:16;;;;;;;15.20;8.07;;;;;;;-0.33;100.00;96197.47;5092893;28;20191;-55
2022/12/20 05:50:43;;;;;;;15.37;7.73;;;;;;;-0.20;100.00;96235.50;5092882;28;20268;-56
2022/12/20 05:53:11;;;;;;;18.93;7.87;;;;;;;-0.08;100.00;96258.63;5092807;28;20595;-53
2022/12/20 05:55:36;;;;;;;13.83;7.80;;;;;;;-0.24;100.00;96232.25;5092642;28;20221;-54
2022/12/20 05:58:01;;;;;;;11.00;7.83;;;;;;;-0.29;100.00;96241.53;5092832;28;20212;-54
2022/12/20 06:00:27;;;;;;;18.10;9.40;;;;;;;-0.18;100.00;96247.13;5092738;28;20645;-55
2022/12/20 06:02:52;;;;;;;12.40;8.30;;;;;;;-0.13;100.00;96265.38;5092836;28;20183;-56
2022/12/20 06:05:18;;;;;;;15.47;8.37;;;;;;;-0.15;100.00;96267.09;5074610;28;20582;-55
2022/12/20 06:07:43;;;;;;;17.73;9.43;;;;;;;-0.43;100.00;96248.44;5092695;28;20201;-57
2022/12/20 06:10:10;;;;;;;14.53;8.10;;;;;;;-0.44;100.00;96243.44;5092697;28;20571;-58
2022/12/20 06:12:35;;;;;;;19.33;7.60;;;;;;;-0.41;100.00;96233.41;5092852;28;20192;-57
2022/12/20 06:15:01;;;;;;;16.33;7.27;;;;;;;-0.41;100.00;96233.41;5092449;28;20224;-57
2022/12/20 06:17:26;;;;;;;11.70;7.03;;;;;;;-0.41;100.00;96260.88;5092685;28;20203;-55
2022/12/20 06:19:52;;;;;;;16.33;6.97;;;;;;;-0.44;100.00;96221.78;5092242;28;20253;-54
2022/12/20 06:22:17;;;;;;;15.73;6.80;;;;;;;-0.39;100.00;96247.53;5092535;28;20274;-53
2022/12/20 06:24:43;;;;;;;12.73;7.20;;;;;;;-0.33;100.00;96251.59;5092446;28;20257;-53
2022/12/20 06:27:08;;;;;;;12.07;6.53;;;;;;;-0.34;100.00;96235.75;5074077;28;20248;-59
2022/12/20 06:29:36;;;;;;;13.50;6.77;;;;;;;-0.48;100.00;96242.66;5092335;28;20721;-57
2022/12/20 06:32:04;;;;;;;12.13;7.50;;;;;;;-0.20;100.00;96178.06;5092105;28;20211;-56
2022/12/20 06:34:30;;;;;;;17.07;6.47;;;;;;;-0.21;100.00;96264.69;5092302;28;20737;-56
2022/12/20 06:36:55;;;;;;;14.33;7.90;;;;;;;-0.24;100.00;96263.91;5092215;28;20191;-54
2022/12/20 06:39:21;;;;;;;14.97;7.00;;;;;;;-0.20;100.00;96278.00;5091989;28;20219;-54
2022/12/20 06:41:46;;;;;;;12.87;6.47;;;;;;;-0.13;100.00;96264.56;5092117;28;20653;-54
2022/12/20 06:44:12;;;;;;;14.60;7.60;;;;;;;-0.15;100.00;96273.75;5092058;28;20203;-54
2022/12/20 06:46:37;;;;;;;11.17;6.40;;;;;;;-0.12;100.00;96271.19;5073123;28;20181;-53
2022/12/20 06:49:02;;;;;;;13.10;6.83;;;;;;;-0.06;100.00;96281.91;5092081;28;20373;-55
2022/12/20 06:51:28;;;;;;;13.40;7.17;;;;;;;0.05;100.00;96283.38;5091918;28;20250;-57
2022/12/20 06:53:53;;;;;;;12.10;7.27;;;;;;;0.09;100.00;96293.31;5092120;28;20188;-53
2022/12/20 06:56:19;;;;;;;11.63;6.97;;;;;;;0.13;100.00;96307.41;5091809;28;20188;-56
2022/12/20 06:58:45;;;;;;;11.20;7.27;;;;;;;0.24;100.00;96307.22;5091913;28;20728;-56
2022/12/20 07:01:11;;;;;;;14.33;6.43;;;;;;;0.39;100.00;96314.44;5091630;28;20255;-54
2022/12/20 07:03:36;;;;;;;11.90;7.03;;;;;;;0.47;100.00;96322.59;5091992;28;20230;-58
2022/12/20 07:06:02;;;;;;;12.80;6.50;;;;;;;0.35;100.00;96327.84;5091976;28;20211;-54
2022/12/20 07:08:27;;;;;;;12.27;7.30;;;;;;;0.55;100.00;96349.13;5091553;28;20643;-55
2022/12/20 07:10:53;;;;;;;14.07;7.80;;;;;;;0.44;100.00;96320.19;5091766;28;20212;-54
2022/12/20 07:13:19;;;;;;;16.03;7.33;;;;;;;0.51;100.00;96321.69;5091535;28;20359;-56
2022/12/20 07:15:44;;;;;;;12.27;7.10;;;;;;;0.63;100.00;96316.47;5091332;28;20647;-55
2022/12/20 07:18:10;;;;;;;13.70;7.00;;;;;;;0.85;100.00;96328.53;5091490;28;20215;-54
2022/12/20 07:20:35;;;;;;;11.57;6.33;;;;;;;0.83;100.00;96332.72;5091551;28;20276;-54
2022/12/20 07:23:00;;;;;;;11.37;6.70;;;;;;;1.12;100.00;96372.19;5091395;28;20550;-53
2022/12/20 07:25:26;;;;;;;16.47;7.27;;;;;;;1.10;100.00;96343.88;5091245;28;20656;-55
2022/12/20 07:27:51;;;;;;;12.60;6.93;;;;;;;1.13;100.00;96356.31;5091565;28;20196;-54
2022/12/20 07:30:18;;;;;;;15.23;7.10;;;;;;;1.29;100.00;96392.72;5091582;28;20219;-54
2022/12/20 07:32:44;;;;;;;12.53;6.50;;;;;;;1.59;100.00;96453.88;5091249;28;20665;-55
2022/12/20 07:35:10;;;;;;;10.17;6.00;;;;;;;1.48;100.00;96409.00;5091653;28;20222;-58
2022/12/20 07:37:37;;;;;;;10.47;5.77;;;;;;;1.63;100.00;96448.78;5073518;28;20195;-54
2022/12/20 07:40:03;;;;;;;10.63;5.53;;;;;;;1.88;100.00;96480.84;5091277;28;20294;-56
2022/12/20 07:42:28;;;;;;;11.33;6.23;;;;;;;1.81;100.00;96470.13;5091390;28;20278;-56
2022/12/20 07:44:54;;;;;;;11.73;6.63;;;;;;;1.91;100.00;96484.09;5091052;28;20292;-56
2022/12/20 07:47:19;;;;;;;12.60;5.90;;;;;;;1.90;100.00;96447.34;5091115;28;20188;-55
2022/12/20 07:49:45;;;;;;;9.77;5.80;;;;;;;1.94;100.00;96463.16;5091288;28;20213;-54
2022/12/20 07:52:13;;;;;;;11.50;5.83;;;;;;;2.12;99.62;96485.31;5072987;28;20217;-54
2022/12/20 07:54:50;;;;;;;13.73;6.67;;;;;;;2.13;99.38;96490.28;5091278;28;20219;-55
2022/12/20 07:57:31;;;;;;;12.47;6.80;;;;;;;2.46;99.56;96461.09;5091004;28;20183;-57
2022/12/20 07:59:59;;;;;;;16.17;6.90;;;;;;;2.62;99.09;96469.88;5090944;28;20223;-55
2022/12/20 08:02:34;;;;;;;12.73;7.20;;;;;;;2.79;97.94;96492.06;5090913;28;20195;-55
2022/12/20 08:05:00;;;;;;;15.70;6.47;;;;;;;3.06;98.38;96489.69;5091189;28;20229;-55
2022/12/20 08:07:28;;;;;;;12.47;6.90;;;;;;;3.14;97.92;96486.94;5090841;28;20248;-57
2022/12/20 08:09:54;;;;;;;12.23;6.33;;;;;;;3.19;84.09;96521.13;5090845;28;20623;-56
2022/12/20 08:12:20;;;;;;;13.17;6.73;;;;;;;3.09;78.47;96532.28;5090683;28;20207;-55
2022/12/20 08:14:46;;;;;;;9.57;5.83;;;;;;;3.02;77.73;96530.81;5090762;28;20215;-55
2022/12/20 08:17:11;;;;;;;11.33;5.83;;;;;;;3.20;77.92;96527.00;5090605;28;20540;-56
2022/12/20 08:19:37;;;;;;;9.03;5.40;;;;;;;3.46;76.69;96546.41;5090564;28;20223;-56
2022/12/20 08:22:03;;;;;;;11.13;5.73;;;;;;;3.68;75.35;96577.66;5090746;28;20229;-53
2022/12/20 08:24:28;;;;;;;8.27;5.47;;;;;;;3.99;74.55;96569.25;5090737;28;20744;-55
2022/12/20 08:26:54;;;;;;;11.53;6.03;;;;;;;4.47;73.81;96581.25;5090583;28;20184;-55
2022/12/20 08:29:20;;;;;;;11.20;5.77;;;;;;;4.68;72.40;96568.00;5090488;28;20286;-56
2022/12/20 08:31:45;;;;;;;12.53;5.90;;;;;;;4.95;69.15;96598.19;5090361;28;20188;-56
2022/12/20 08:34:10;;;;;;;9.53;5.60;;;;;;;5.28;68.78;96582.84;5090263;28;20196;-56
2022/12/20 08:36:36;;;;;;;9.83;5.40;;;;;;;5.37;65.88;96650.66;5090404;28;20196;-56
2022/12/20 08:39:05;;;;;;;12.27;5.73;;;;;;;5.56;66.17;96626.44;5090400;28;20208;-54
2022/12/20 08:41:33;;;;;;;15.67;7.23;;;;;;;5.75;67.73;96582.91;5090557;28;20720;-54
2022/12/20 08:43:58;;;;;;;10.07;5.57;;;;;;;6.05;64.45;96658.44;5090438;28;20189;-58
2022/12/20 08:46:24;;;;;;;9.43;5.43;;;;;;;6.25;62.40;96699.81;5090815;28;20660;-54
2022/12/20 08:48:49;;;;;;;14.40;5.97;;;;;;;6.23;61.12;96719.25;5090242;28;20216;-58
2022/12/20 08:51:14;;;;;;;9.40;5.23;;;;;;;6.33;60.25;96720.56;5090438;28;20200;-55
2022/12/20 08:53:40;;;;;;;11.70;5.67;;;;;;;6.46;61.44;96690.66;5090308;28;20187;-57
2022/12/20 08:56:11;;;;;;;14.27;5.30;;;;;;;6.31;59.84;96686.97;5090038;28;20207;-54
2022/12/20 08:58:38;;;;;;;10.40;5.53;;;;;;;6.74;60.44;96696.34;5090041;28;20297;-55
2022/12/20 09:01:07;;;;;;;9.50;5.50;;;;;;;6.85;58.03;96751.56;5090485;28;20295;-54
2022/12/20 09:03:34;;;;;;;9.43;5.67;;;;;;;7.08;58.01;96738.88;5071921;28;20206;-55
2022/12/20 09:06:00;;;;;;;10.97;5.27;;;;;;;7.22;57.66;96724.00;5090128;28;20234;-54
2022/12/20 09:08:25;;;;;;;9.70;5.83;;;;;;;7.16;58.25;96714.13;5090850;28;20195;-56
2022/12/20 09:10:52;;;;;;;8.33;4.83;;;;;;;7.25;55.85;96760.13;5093746;28;20685;-54
2022/12/20 09:13:18;;;;;;;10.97;5.33;;;;;;;7.22;56.17;96729.06;5093414;28;20221;-54
2022/12/20 09:15:44;;;;;;;9.97;5.63;;;;;;;6.97;55.79;96739.28;5093335;28;20218;-54
2022/12/20 09:18:10;;;;;;;7.93;5.03;;;;;;;7.24;56.72;96691.88;5058611;28;20205;-55
2022/12/20 09:20:35;;;;;;;10.60;5.53;;;;;;;7.57;56.08;96701.50;5093642;28;20340;-54
2022/12/20 09:23:01;;;;;;;8.13;5.10;;;;;;;7.73;54.83;96746.44;5093359;28;20217;-54
2022/12/20 09:25:27;;;;;;;8.37;5.10;;;;;;;7.92;52.44;96791.22;5093567;28;20207;-54
2022/12/20 09:27:56;;;;;;;10.20;5.13;;;;;;;7.78;51.91;96757.25;5093220;28;20289;-55
2022/12/20 09:30:22;;;;;;;9.97;5.53;;;;;;;8.00;50.89;96733.50;5093396;28;20567;-55
2022/12/20 09:32:47;;;;;;;10.40;4.93;;;;;;;7.74;51.09;96697.50;5093195;28;20257;-56
2022/12/20 09:35:13;;;;;;;9.30;5.47;;;;;;;8.23;50.38;96697.06;5074951;28;20219;-57
2022/12/20 09:37:38;;;;;;;7.83;5.30;;;;;;;8.58;48.78;96711.63;5093180;28;20209;-55
2022/12/20 09:40:04;;;;;;;11.33;5.47;;;;;;;8.51;47.52;96732.22;5093091;28;20225;-57
2022/12/20 09:42:31;;;;;;;10.43;4.77;;;;;;;8.31;47.38;96700.13;5092888;28;20223;-54
2022/12/20 09:45:04;;;;;;;8.20;5.23;;;;;;;8.56;47.61;96695.66;5075042;28;20693;-55
2022/12/20 09:47:33;;;;;;;8.13;5.37;;;;;;;8.54;47.61;96687.28;5092890;28;20238;-57
2022/12/20 09:49:59;;;;;;;8.93;5.37;;;;;;;8.84;47.13;96669.88;5093178;28;20222;-56
2022/12/20 09:53:11;;;;;;;8.47;5.20;;;;;;;8.80;46.80;96663.28;5092850;28;20709;-57
2022/12/20 09:55:50;;;;;;;8.73;5.30;;;;;;;8.70;46.11;96692.50;5092991;28;20214;-56
2022/12/20 09:58:21;;;;;;;10.73;5.23;;;;;;;8.67;46.18;96663.03;5092763;28;20303;-56
2022/12/20 10:00:49;;;;;;;9.00;4.13;;;;;;;8.83;45.16;96683.44;5092729;28;20216;-53
2022/12/20 10:03:22;;;;;;;6.47;4.30;;;;;;;9.11;46.06;96645.78;5092740;28;20249;-53
2022/12/20 10:05:53;;;;;;;12.50;5.27;;;;;;;9.33;45.88;96654.03;5092998;28;20280;-54
2022/12/20 10:08:38;;;;;;;9.57;5.07;;;;;;;8.61;47.14;96606.69;5092575;28;20203;-54
2022/12/20 10:11:22;;;;;;;9.00;5.30;;;;;;;8.86;46.45;96612.28;5092926;28;20216;-56
2022/12/20 10:13:47;;;;;;;7.63;4.80;;;;;;;9.46;45.72;96624.59;5092756;28;20192;-56
2022/12/20 10:16:37;;;;;;;9.57;4.83;;;;;;;9.38;44.01;96672.38;5092738;28;20315;-55
2022/12/20 10:19:05;;;;;;;7.13;4.43;;;;;;;9.29;43.54;96665.22;5092329;28;20290;-54
2022/12/20 10:21:37;;;;;;;8.87;5.40;;;;;;;9.27;44.08;96634.00;5091275;28;20180;-55
2022/12/20 10:24:16;;;;;;;6.90;4.33;;;;;;;8.98;44.76;96588.88;5092123;28;20609;-55
2022/12/20 10:26:42;;;;;;;9.63;5.43;;;;;;;9.11;44.75;96595.03;5092356;28;20184;-53
2022/12/20 10:29:08;;;;;;;10.43;5.30;;;;;;;9.30;44.29;96572.94;5092090;28;20196;-54
2022/12/20 10:31:33;;;;;;;6.40;4.57;;;;;;;9.63;45.47;96550.97;5092454;28;20219;-53
2022/12/20 10:33:59;;;;;;;8.63;5.27;;;;;;;9.38;43.65;96598.75;5092134;28;20632;-53
2022/12/20 10:36:28;;;;;;;8.93;5.23;;;;;;;9.04;44.81;96527.72;5092297;28;20283;-53
2022/12/20 10:38:59;;;;;;;6.87;4.50;;;;;;;8.81;45.46;96505.16;5092080;28;20301;-54
2022/12/20 10:41:50;;;;;;;9.80;4.43;;;;;;;9.03;45.36;96524.34;5092155;28;20200;-53
2022/12/20 10:44:29;;;;;;;6.60;4.33;;;;;;;9.04;45.47;96509.97;5091946;28;20238;-55
2022/12/20 10:46:59;;;;;;;7.80;3.80;;;;;;;8.50;45.48;96503.28;5091782;28;20270;-54
2022/12/20 10:49:35;;;;;;;5.80;4.87;;;;;;;8.52;45.45;96495.59;5091903;28;20219;-55
2022/12/20 10:52:06;;;;;;;8.67;4.40;;;;;;;8.42;45.02;96490.94;5092038;28;20180;-54
2022/12/20 10:54:38;;;;;;;7.60;4.03;;;;;;;8.70;46.87;96441.50;5091991;28;20366;-54
2022/12/20 10:57:28;;;;;;;7.47;4.50;;;;;;;8.74;44.52;96486.91;5091825;28;20329;-54
2022/12/20 10:59:56;;;;;;;8.07;5.20;;;;;;;8.79;45.46;96479.06;5079595;28;20412;-54
2022/12/20 11:02:29;;;;;;;6.13;4.50;;;;;;;8.68;45.36;96461.03;5091685;28;20184;-54
2022/12/20 11:05:05;;;;;;;10.13;4.50;;;;;;;8.69;46.13;96437.28;5091807;28;20208;-54
2022/12/20 11:07:33;;;;;;;7.10;4.37;;;;;;;8.29;45.54;96459.50;5091331;28;20188;-54
2022/12/20 11:10:02;;;;;;;8.17;4.30;;;;;;;8.29;45.15;96438.41;5091546;28;20218;-55
2022/12/20 11:12:27;;;;;;;7.60;4.93;;;;;;;8.35;46.02;96430.50;5091494;28;20180;-55
2022/12/20 11:15:18;;;;;;;7.07;4.50;;;;;;;8.40;45.70;96434.44;5091688;28;20629;-54
2022/12/20 11:17:50;;;;;;;9.27;4.60;;;;;;;8.57;47.47;96387.19;5091653;28;20218;-56
2022/12/20 11:20:15;;;;;;;8.70;4.77;;;;;;;8.48;47.61;96381.69;5091615;28;20665;-57
2022/12/20 11:23:12;;;;;;;9.47;4.50;;;;;;;8.46;46.95;96392.81;5091489;28;20184;-55
2022/12/20 11:25:58;;;;;;;9.80;5.00;;;;;;;8.37;46.94;96378.88;5053351;28;20596;-56
2022/12/20 11:28:27;;;;;;;8.43;4.60;;;;;;;8.15;46.55;96368.09;5091399;28;20665;-54
2022/12/20 11:31:20;;;;;;;9.33;4.67;;;;;;;7.83;47.09;96373.03;5091129;28;20216;-55
2022/12/20 11:34:07;;;;;;;7.30;4.47;;;;;;;8.04;47.63;96339.09;5091328;28;20207;-56
2022/12/20 11:37:00;;;;;;;7.03;4.10;;;;;;;8.55;46.68;96378.84;5091583;28;20184;-55
2022/12/20 11:42:46;;;;;;;6.27;4.20;;;;;;;8.80;44.96;96424.94;5091290;28;20253;-57
2022/12/20 11:45:24;;;;;;;7.47;3.97;;;;;;;8.72;45.91;96392.34;5091347;28;20223;-54
2022/12/20 11:48:01;;;;;;;6.97;3.60;;;;;;;8.48;44.57;96407.94;5091381;28;20195;-55